Time;durP1;ratioP1;P1;durP2;ratioP2;P2;SDS_P1;SDS_P2;PMS_P1;PMS_P2;Temp;Humidity;BMP_temperature;BMP_pressure;BME280_temperature;BME280_humidity;BME280_pressure;Samples;Min_cycle;Max_cycle;Signal;HPM_P1;HPM_P2
2022/10/17 00:00:42;;;;;;;7.70;6.17;;;;;;;24.29;47.67;100229.19;4103357;28;20268;-37
2022/10/17 00:02:43;;;;;;;9.17;6.90;;;;;;;24.34;47.27;100236.59;4108280;28;20316;-37
2022/10/17 00:04:45;;;;;;;11.47;6.53;;;;;;;24.27;48.06;100227.75;4117795;28;20276;-38
2022/10/17 00:06:46;;;;;;;6.63;5.93;;;;;;;25.34;45.92;100173.78;4113789;28;20288;-35
2022/10/17 00:08:48;;;;;;;8.63;5.77;;;;;;;25.19;46.47;100215.19;4112348;28;20256;-35
2022/10/17 00:10:59;;;;;;;9.27;5.87;;;;;;;24.68;47.07;100248.47;4096237;28;20505;-35
2022/10/17 00:13:00;;;;;;;7.63;6.00;;;;;;;24.56;47.27;100238.69;4097177;28;20236;-34
2022/10/17 00:15:06;;;;;;;7.23;5.77;;;;;;;24.12;48.32;100241.81;4117538;28;20275;-35
2022/10/17 00:17:08;;;;;;;7.47;5.27;;;;;;;24.49;47.75;100222.53;4113161;28;20301;-37
2022/10/17 00:19:09;;;;;;;8.03;5.43;;;;;;;24.29;47.83;100253.66;4108840;28;20602;-37
2022/10/17 00:21:16;;;;;;;9.27;5.30;;;;;;;25.13;46.71;100222.41;4112382;28;20393;-40
2022/10/17 00:23:18;;;;;;;7.00;4.90;;;;;;;24.96;46.91;100235.97;4093497;28;20258;-36
2022/10/17 00:25:20;;;;;;;7.63;5.20;;;;;;;25.42;45.97;100214.22;4122009;28;20316;-36
2022/10/17 00:27:21;;;;;;;8.90;5.37;;;;;;;25.42;46.10;100231.41;4103655;28;20249;-37
2022/10/17 00:29:23;;;;;;;8.23;4.83;;;;;;;25.52;45.85;100224.47;4115406;28;20269;-38
2022/10/17 00:31:25;;;;;;;11.10;6.17;;;;;;;25.48;45.96;100240.47;4108797;28;20255;-35
2022/10/17 00:33:28;;;;;;;8.50;6.00;;;;;;;25.15;46.90;100263.81;4106827;28;20270;-37
2022/10/17 00:35:30;;;;;;;9.07;6.20;;;;;;;25.60;46.03;100232.22;4100769;28;20321;-33
2022/10/17 00:37:32;;;;;;;9.27;5.97;;;;;;;25.21;46.70;100251.97;4119539;28;20237;-40
2022/10/17 00:39:34;;;;;;;11.23;6.40;;;;;;;25.20;46.60;100257.63;4109564;28;20534;-39
2022/10/17 00:41:35;;;;;;;6.60;5.40;;;;;;;24.55;47.32;100285.97;4110147;28;20267;-34
2022/10/17 00:44:30;;;;;;;9.73;5.50;;;;;;;24.66;47.67;100266.91;4102427;28;20257;-36
2022/10/17 00:46:37;;;;;;;11.90;5.80;;;;;;;25.38;46.27;100230.25;4031966;29;20240;-38
2022/10/17 00:48:39;;;;;;;7.90;5.83;;;;;;;24.42;47.22;100284.34;4017347;29;20805;-36
2022/10/17 00:50:43;;;;;;;7.63;5.30;;;;;;;24.59;47.38;100260.78;4045441;28;20259;-34
2022/10/17 00:52:47;;;;;;;6.43;5.27;;;;;;;25.01;46.62;100244.25;4094448;28;20234;-36
2022/10/17 00:54:53;;;;;;;7.20;5.63;;;;;;;25.64;45.27;100213.50;4119281;28;20269;-35
2022/10/17 00:56:55;;;;;;;7.50;5.27;;;;;;;25.62;45.50;100221.91;4095881;28;20799;-39
2022/10/17 00:58:57;;;;;;;8.67;5.20;;;;;;;25.09;46.34;100262.09;4104665;28;20269;-37
2022/10/17 01:01:01;;;;;;;10.03;5.70;;;;;;;25.14;45.95;100261.31;4113445;28;20354;-36
2022/10/17 01:03:03;;;;;;;6.30;5.47;;;;;;;24.89;46.83;100275.28;4106637;28;20457;-36
2022/10/17 01:05:06;;;;;;;9.20;5.80;;;;;;;25.09;46.19;100263.94;4116113;28;20320;-37
2022/10/17 01:07:08;;;;;;;7.73;5.17;;;;;;;25.40;45.20;100243.59;4118723;28;20233;-38
2022/10/17 01:09:10;;;;;;;7.53;5.83;;;;;;;25.56;45.05;100233.78;4111278;28;20312;-39
2022/10/17 01:11:36;;;;;;;7.80;5.63;;;;;;;25.40;45.85;100259.94;4111082;28;20666;-39
2022/10/17 01:13:47;;;;;;;5.70;5.10;;;;;;;25.52;45.79;100243.53;4109566;28;22955;-39
2022/10/17 01:16:06;;;;;;;8.13;5.70;;;;;;;25.41;45.46;100267.03;4111972;28;20267;-37
2022/10/17 01:18:44;;;;;;;8.97;5.50;;;;;;;25.21;45.92;100281.06;4110168;28;20256;-35
2022/10/17 01:21:23;;;;;;;9.93;5.07;;;;;;;25.27;46.04;100265.66;4112310;28;20271;-36
2022/10/17 01:23:40;;;;;;;5.87;5.00;;;;;;;25.30;45.50;100257.81;4112537;28;20228;-37
2022/10/17 01:25:44;;;;;;;7.33;5.00;;;;;;;25.59;45.53;100252.34;4081412;28;20892;-34
2022/10/17 01:27:55;;;;;;;5.30;4.40;;;;;;;25.14;45.63;100288.53;4115173;28;20276;-39
2022/10/17 01:30:15;;;;;;;6.83;4.57;;;;;;;25.50;45.91;100265.56;4104129;28;20244;-38
2022/10/17 01:32:19;;;;;;;9.13;5.13;;;;;;;25.29;46.01;100275.25;4121755;28;20263;-37
2022/10/17 01:34:32;;;;;;;6.50;4.60;;;;;;;25.20;46.01;100276.69;4116900;28;20268;-38
2022/10/17 01:36:57;;;;;;;5.70;4.70;;;;;;;25.19;45.99;100275.06;4112133;28;20860;-34
2022/10/17 01:39:28;;;;;;;7.93;5.17;;;;;;;25.61;45.48;100255.69;4089854;28;20252;-38
2022/10/17 01:41:39;;;;;;;7.20;4.90;;;;;;;24.59;46.70;100303.47;4115137;28;20256;-36
2022/10/17 01:43:50;;;;;;;7.80;5.00;;;;;;;24.69;46.55;100304.50;4093905;28;20356;-35
2022/10/17 01:46:01;;;;;;;7.47;4.87;;;;;;;24.66;46.69;100290.56;4113607;28;20268;-35
2022/10/17 01:48:10;;;;;;;4.53;4.03;;;;;;;24.00;47.49;100308.91;4098987;28;20284;-35
2022/10/17 01:50:22;;;;;;;4.97;3.77;;;;;;;24.71;46.72;100274.34;4111081;28;20263;-41
2022/10/17 01:52:30;;;;;;;5.10;3.80;;;;;;;24.52;47.03;100289.19;4112853;28;20268;-36
2022/10/17 01:54:40;;;;;;;4.63;4.00;;;;;;;24.28;47.08;100287.31;4110546;28;20287;-38
2022/10/17 01:56:44;;;;;;;4.23;3.63;;;;;;;24.46;46.95;100288.22;4110502;28;20868;-35
2022/10/17 01:58:59;;;;;;;4.63;3.77;;;;;;;24.16;47.34;100280.19;4114962;28;20328;-38
2022/10/17 02:01:05;;;;;;;5.40;3.70;;;;;;;23.97;47.32;100302.03;4107843;28;20264;-35
2022/10/17 02:03:12;;;;;;;3.60;3.30;;;;;;;23.95;46.98;100290.56;4116215;28;20251;-33
2022/10/17 02:05:16;;;;;;;3.90;3.53;;;;;;;24.47;46.47;100262.72;4109995;28;20275;-34
2022/10/17 02:07:17;;;;;;;4.07;3.33;;;;;;;23.60;48.16;100285.91;4107635;28;20689;-34
2022/10/17 02:09:25;;;;;;;4.40;4.00;;;;;;;23.55;47.68;100286.63;4106893;28;20916;-38
2022/10/17 02:11:27;;;;;;;5.03;3.63;;;;;;;23.93;47.20;100269.09;4108797;28;20263;-34
2022/10/17 02:13:31;;;;;;;4.13;3.50;;;;;;;24.29;46.52;100259.09;4118100;28;20260;-36
2022/10/17 02:16:02;;;;;;;4.00;3.40;;;;;;;24.37;46.34;100257.06;4106204;28;20217;-35
2022/10/17 02:18:32;;;;;;;7.50;3.53;;;;;;;24.47;46.46;100247.22;4111436;28;20325;-35
2022/10/17 02:20:49;;;;;;;4.47;3.27;;;;;;;24.68;45.69;100237.59;4114801;28;20240;-34
2022/10/17 02:22:55;;;;;;;4.93;3.07;;;;;;;24.46;45.99;100269.19;4105215;28;20249;-35
2022/10/17 02:25:00;;;;;;;4.17;3.20;;;;;;;24.78;45.80;100249.78;4106751;28;20276;-35
2022/10/17 02:27:11;;;;;;;8.47;3.23;;;;;;;25.27;44.40;100241.97;4089225;28;20276;-35
2022/10/17 02:29:17;;;;;;;8.70;3.63;;;;;;;24.30;46.31;100289.78;4106673;28;20738;-36
2022/10/17 02:31:24;;;;;;;4.90;3.47;;;;;;;24.24;45.74;100294.25;4110999;28;20977;-34
2022/10/17 02:33:35;;;;;;;5.47;3.20;;;;;;;24.87;45.12;100259.22;4106535;28;20332;-36
2022/10/17 02:35:42;;;;;;;4.53;2.97;;;;;;;24.60;45.31;100289.63;4110623;28;20227;-34
2022/10/17 02:37:46;;;;;;;5.47;3.70;;;;;;;25.24;44.04;100246.03;4111806;28;20316;-35
2022/10/17 02:39:49;;;;;;;3.97;3.57;;;;;;;25.75;43.26;100237.09;4107730;28;20268;-36
2022/10/17 02:41:54;;;;;;;5.67;4.00;;;;;;;24.63;45.19;100301.91;4113759;28;20243;-36
2022/10/17 02:43:56;;;;;;;6.00;3.93;;;;;;;25.34;44.15;100258.16;4107638;28;20323;-35
2022/10/17 02:46:04;;;;;;;5.13;3.40;;;;;;;24.53;45.07;100305.25;4109480;28;20497;-37
2022/10/17 02:48:17;;;;;;;6.40;3.20;;;;;;;25.43;44.18;100256.72;4113426;28;20260;-33
2022/10/17 02:50:26;;;;;;;3.53;3.10;;;;;;;24.74;44.94;100292.91;4118152;28;20263;-36
2022/10/17 02:52:56;;;;;;;9.00;3.53;;;;;;;24.77;44.72;100295.19;4107347;28;20987;-39
2022/10/17 02:55:04;;;;;;;5.97;3.07;;;;;;;24.57;45.59;100297.44;4104928;28;20312;-34
2022/10/17 02:57:17;;;;;;;6.73;3.50;;;;;;;24.27;45.32;100307.38;4110815;28;20252;-34
2022/10/17 02:59:21;;;;;;;4.17;3.60;;;;;;;24.72;44.86;100291.50;4113977;28;20229;-37
2022/10/17 03:01:24;;;;;;;5.60;3.37;;;;;;;24.33;44.92;100310.22;4100604;28;20226;-34
2022/10/17 03:03:28;;;;;;;4.03;3.50;;;;;;;24.61;44.97;100309.47;4118525;28;20245;-33
2022/10/17 03:05:30;;;;;;;6.07;3.97;;;;;;;24.85;44.33;100294.81;4093310;28;20523;-34
2022/10/17 03:07:32;;;;;;;8.27;3.63;;;;;;;25.12;43.99;100279.78;4095012;28;20265;-34
2022/10/17 03:09:33;;;;;;;7.20;3.40;;;;;;;24.98;44.32;100284.72;4092778;28;20242;-36
2022/10/17 03:11:35;;;;;;;4.50;3.83;;;;;;;24.70;44.52;100302.63;4115119;28;20237;-33
2022/10/17 03:13:37;;;;;;;4.37;3.60;;;;;;;24.55;45.20;100308.56;4098735;28;20261;-36
2022/10/17 03:15:40;;;;;;;5.87;3.47;;;;;;;22.40;48.68;100337.00;4108266;28;20272;-34
2022/10/17 03:17:42;;;;;;;5.40;3.47;;;;;;;23.08;47.91;100302.72;4107368;28;20261;-35
2022/10/17 03:19:43;;;;;;;5.80;3.33;;;;;;;23.48;47.25;100279.59;4096836;28;20268;-35
2022/10/17 03:21:45;;;;;;;5.53;3.90;;;;;;;23.31;46.40;100310.09;4109650;28;20711;-35
2022/10/17 03:23:47;;;;;;;8.00;4.57;;;;;;;23.84;45.73;100294.94;4094610;28;20321;-33
2022/10/17 03:25:48;;;;;;;3.87;3.47;;;;;;;24.12;44.72;100274.41;4096228;28;20262;-34
2022/10/17 03:27:50;;;;;;;5.23;3.80;;;;;;;23.65;45.35;100321.31;4099033;28;20272;-35
2022/10/17 03:29:52;;;;;;;4.93;3.70;;;;;;;23.76;45.62;100292.56;4108385;28;20230;-36
2022/10/17 03:31:53;;;;;;;6.57;3.60;;;;;;;23.71;45.77;100306.84;4082703;28;20897;-35
2022/10/17 03:33:55;;;;;;;6.00;3.70;;;;;;;23.53;45.29;100315.84;4096183;28;20261;-34
2022/10/17 03:35:57;;;;;;;4.27;3.30;;;;;;;23.26;46.46;100328.97;4100716;28;20264;-39
2022/10/17 03:37:58;;;;;;;6.67;3.70;;;;;;;23.82;45.52;100293.50;4102909;28;20868;-36
2022/10/17 03:40:00;;;;;;;5.80;3.67;;;;;;;24.14;45.62;100283.13;4091488;28;20233;-39
2022/10/17 03:42:02;;;;;;;4.73;3.50;;;;;;;24.59;44.60;100298.03;4093777;28;20254;-36
2022/10/17 03:44:03;;;;;;;7.47;3.60;;;;;;;24.57;44.17;100300.97;4095195;28;20266;-35
2022/10/17 03:46:06;;;;;;;8.50;3.47;;;;;;;24.85;43.77;100283.94;4093309;28;20314;-33
2022/10/17 03:48:08;;;;;;;8.07;3.57;;;;;;;24.76;44.00;100304.38;4098423;28;20245;-35
2022/10/17 03:50:09;;;;;;;4.97;3.47;;;;;;;24.82;43.97;100310.78;4110707;28;20229;-34
2022/10/17 03:52:12;;;;;;;5.03;3.40;;;;;;;23.61;46.23;100347.28;4107366;28;20251;-37
2022/10/17 03:54:13;;;;;;;10.83;3.27;;;;;;;24.05;45.56;100319.88;4094869;28;20235;-36
2022/10/17 03:56:23;;;;;;;4.77;3.37;;;;;;;23.54;46.37;100330.25;4108443;28;20613;-33
2022/10/17 03:58:24;;;;;;;5.20;3.40;;;;;;;23.94;46.25;100303.34;4111259;28;20417;-32
2022/10/17 04:00:26;;;;;;;5.30;3.43;;;;;;;23.98;45.31;100311.03;4108878;28;20684;-32
2022/10/17 04:02:28;;;;;;;5.23;3.80;;;;;;;23.92;45.46;100307.34;4104187;28;20221;-36
2022/10/17 04:04:29;;;;;;;6.27;3.50;;;;;;;23.73;45.63;100328.31;4093774;28;21145;-36
2022/10/17 04:06:31;;;;;;;5.23;3.33;;;;;;;24.45;44.91;100290.13;4113523;28;20245;-34
2022/10/17 04:08:33;;;;;;;6.33;3.63;;;;;;;24.59;44.80;100298.84;4115678;28;20263;-33
2022/10/17 04:10:35;;;;;;;5.33;3.77;;;;;;;24.16;45.40;100318.22;4104004;28;20287;-37
2022/10/17 04:12:37;;;;;;;6.33;3.47;;;;;;;23.45;46.46;100337.91;4098358;28;20249;-34
2022/10/17 04:14:39;;;;;;;7.47;3.63;;;;;;;24.28;45.89;100287.31;4094718;28;20863;-32
2022/10/17 04:16:40;;;;;;;5.07;3.87;;;;;;;24.56;45.24;100287.63;4108929;28;20253;-34
2022/10/17 04:18:42;;;;;;;5.27;3.27;;;;;;;24.55;44.86;100299.56;4098230;28;20234;-37
2022/10/17 04:20:44;;;;;;;5.23;3.60;;;;;;;23.08;47.27;100339.84;4103880;28;20365;-36
2022/10/17 04:22:45;;;;;;;5.87;3.60;;;;;;;23.43;47.10;100317.47;4098552;28;20253;-35
2022/10/17 04:24:47;;;;;;;4.10;3.40;;;;;;;24.38;45.68;100289.44;4111301;28;20729;-35
2022/10/17 04:26:50;;;;;;;3.83;3.43;;;;;;;22.82;47.18;100355.34;4105248;28;20248;-35
2022/10/17 04:28:52;;;;;;;9.10;3.53;;;;;;;23.55;45.98;100329.19;4091632;28;20284;-33
2022/10/17 04:31:08;;;;;;;3.87;3.00;;;;;;;23.72;45.60;100327.50;4106411;28;20661;-34
2022/10/17 04:33:10;;;;;;;7.03;4.10;;;;;;;23.66;45.56;100322.19;4074764;28;20247;-37
2022/10/17 04:35:11;;;;;;;8.30;3.43;;;;;;;23.44;46.24;100330.81;4135291;28;20761;-34
2022/10/17 04:37:13;;;;;;;5.23;3.10;;;;;;;23.35;46.69;100340.31;4111085;28;20311;-33
2022/10/17 04:39:15;;;;;;;6.63;3.47;;;;;;;24.44;44.98;100285.75;4102905;28;20261;-34
2022/10/17 04:41:17;;;;;;;8.53;3.30;;;;;;;23.47;46.15;100357.50;4099635;28;20783;-34
2022/10/17 04:43:19;;;;;;;5.93;3.20;;;;;;;23.06;46.59;100360.94;4098229;28;20312;-36
2022/10/17 04:45:21;;;;;;;8.33;3.60;;;;;;;23.52;45.92;100335.09;4100413;28;20277;-36
2022/10/17 04:47:22;;;;;;;3.97;3.20;;;;;;;24.08;45.17;100312.09;4104780;28;20319;-32
2022/10/17 04:49:24;;;;;;;7.70;3.60;;;;;;;24.34;44.69;100311.88;4098519;28;20253;-34
2022/10/17 04:51:26;;;;;;;4.90;3.77;;;;;;;24.11;44.73;100337.97;4098187;28;20272;-35
2022/10/17 04:53:30;;;;;;;5.13;3.27;;;;;;;24.39;44.25;100320.16;4099323;28;20900;-34
2022/10/17 04:55:37;;;;;;;4.67;3.17;;;;;;;24.63;44.00;100310.91;4103455;28;20281;-35
2022/10/17 04:57:38;;;;;;;13.00;3.53;;;;;;;24.17;44.63;100341.66;4100987;28;20333;-35
2022/10/17 04:59:40;;;;;;;4.23;3.20;;;;;;;23.25;45.97;100378.00;4113810;28;20280;-34
2022/10/17 05:01:42;;;;;;;6.90;3.40;;;;;;;21.68;48.78;100374.41;4098125;28;20225;-34
2022/10/17 05:03:44;;;;;;;6.90;3.53;;;;;;;23.36;46.06;100307.53;4099198;28;20409;-35
2022/10/17 05:05:46;;;;;;;4.50;3.97;;;;;;;23.02;46.66;100352.44;4092666;28;20269;-36
2022/10/17 05:07:47;;;;;;;6.83;3.30;;;;;;;23.64;45.61;100332.44;4102379;28;20252;-34
2022/10/17 05:09:49;;;;;;;5.43;3.40;;;;;;;23.85;45.17;100322.91;4092797;28;20663;-34
2022/10/17 05:11:51;;;;;;;4.37;3.40;;;;;;;23.74;45.32;100333.53;4095717;28;20245;-35
2022/10/17 05:13:55;;;;;;;7.33;3.37;;;;;;;22.38;47.70;100368.91;4099942;28;20265;-35
2022/10/17 05:16:01;;;;;;;4.50;3.17;;;;;;;21.79;48.41;100378.31;4090835;28;20257;-33
2022/10/17 05:18:04;;;;;;;11.33;3.57;;;;;;;22.53;48.04;100330.63;4115924;28;20950;-38
2022/10/17 05:20:07;;;;;;;5.27;3.50;;;;;;;23.32;46.36;100319.91;4103628;28;20728;-34
2022/10/17 05:22:08;;;;;;;6.27;3.60;;;;;;;22.66;47.06;100364.91;4096790;28;20258;-34
2022/10/17 05:24:13;;;;;;;5.53;3.50;;;;;;;22.99;46.96;100334.72;4096927;28;20265;-36
2022/10/17 05:26:15;;;;;;;4.93;3.40;;;;;;;22.70;47.31;100346.31;4090534;28;20260;-33
2022/10/17 05:28:16;;;;;;;5.17;3.83;;;;;;;22.31;47.59;100375.47;4104028;28;20252;-34
2022/10/17 05:30:18;;;;;;;6.80;3.40;;;;;;;22.89;47.56;100320.84;4100409;28;20226;-34
2022/10/17 05:32:19;;;;;;;7.30;3.70;;;;;;;23.09;46.61;100339.63;4096601;28;20234;-35
2022/10/17 05:34:21;;;;;;;8.07;3.40;;;;;;;23.20;46.09;100341.56;4094318;28;20321;-35
2022/10/17 05:36:23;;;;;;;9.10;3.63;;;;;;;23.10;46.30;100344.00;4108071;28;20221;-34
2022/10/17 05:38:25;;;;;;;8.93;3.50;;;;;;;23.41;46.19;100344.84;4104250;28;20745;-32
2022/10/17 05:40:27;;;;;;;5.03;3.80;;;;;;;23.10;46.12;100368.41;4102631;28;20233;-32
2022/10/17 05:42:28;;;;;;;8.50;3.80;;;;;;;23.30;46.04;100359.16;4095769;28;20257;-34
2022/10/17 05:44:30;;;;;;;5.97;3.80;;;;;;;23.44;45.41;100357.94;4091024;28;20321;-33
2022/10/17 05:46:32;;;;;;;9.30;3.50;;;;;;;23.39;45.46;100374.09;4097089;28;20345;-34
2022/10/17 05:48:34;;;;;;;8.13;3.23;;;;;;;23.22;45.97;100381.22;4110252;28;20321;-35
2022/10/17 05:50:35;;;;;;;9.33;4.00;;;;;;;23.47;45.96;100364.78;4099105;28;20690;-36
2022/10/17 05:52:37;;;;;;;7.73;3.77;;;;;;;23.93;44.59;100355.16;4104445;28;20248;-35
2022/10/17 05:54:39;;;;;;;9.33;4.00;;;;;;;23.58;45.53;100375.72;4098790;28;20241;-33
2022/10/17 05:56:40;;;;;;;6.63;4.20;;;;;;;24.02;44.84;100353.75;4097810;28;20591;-33
2022/10/17 05:58:44;;;;;;;8.73;3.50;;;;;;;24.18;44.95;100356.91;4098245;28;20856;-35
2022/10/17 06:00:57;;;;;;;6.33;3.60;;;;;;;24.45;44.76;100340.94;4093571;28;20778;-33
2022/10/17 06:02:58;;;;;;;5.63;3.57;;;;;;;24.36;44.27;100364.91;4094382;28;20737;-35
2022/10/17 06:05:00;;;;;;;7.10;3.80;;;;;;;24.66;43.45;100363.97;4094321;28;20714;-35
2022/10/17 06:07:01;;;;;;;7.63;3.50;;;;;;;24.41;44.10;100388.69;4105397;28;20226;-35
2022/10/17 06:09:03;;;;;;;5.13;3.50;;;;;;;24.34;43.91;100388.78;4096919;28;20237;-35
2022/10/17 06:11:05;;;;;;;6.00;3.60;;;;;;;24.46;44.01;100383.34;4101325;28;20526;-34
2022/10/17 06:13:11;;;;;;;7.37;4.20;;;;;;;24.51;44.10;100380.75;4102715;28;20233;-36
2022/10/17 06:15:12;;;;;;;5.33;4.00;;;;;;;24.67;43.89;100377.31;4097897;28;20783;-33
2022/10/17 06:17:14;;;;;;;7.23;3.97;;;;;;;23.75;45.23;100421.22;4098809;28;20313;-36
2022/10/17 06:19:16;;;;;;;10.17;4.00;;;;;;;23.41;46.03;100422.72;4094827;28;20459;-34
2022/10/17 06:21:23;;;;;;;5.30;3.90;;;;;;;23.65;45.72;100415.53;4109755;28;20280;-33
2022/10/17 06:23:26;;;;;;;5.93;4.00;;;;;;;23.76;45.79;100403.88;4099158;28;20710;-33
2022/10/17 06:25:32;;;;;;;5.27;3.47;;;;;;;23.83;45.41;100401.06;4091843;28;20227;-37
2022/10/17 06:27:34;;;;;;;4.33;3.63;;;;;;;23.36;46.06;100436.94;4109878;28;20388;-33
2022/10/17 06:29:35;;;;;;;8.20;3.60;;;;;;;22.48;46.92;100454.31;4095819;28;20481;-34
2022/10/17 06:31:37;;;;;;;4.40;4.00;;;;;;;23.07;46.32;100428.53;4097024;28;20820;-35
2022/10/17 06:33:39;;;;;;;8.37;4.07;;;;;;;23.38;45.87;100416.69;4101356;28;20285;-36
2022/10/17 06:35:41;;;;;;;7.67;6.60;;;;;;;24.41;44.13;100381.38;4103008;28;20330;-35
2022/10/17 06:37:42;;;;;;;12.00;5.60;;;;;;;24.48;44.07;100389.38;4088731;28;20571;-32
2022/10/17 06:39:44;;;;;;;9.63;5.33;;;;;;;24.59;44.07;100399.44;4091498;28;20214;-35
2022/10/17 06:41:46;;;;;;;7.93;4.90;;;;;;;23.86;45.42;100433.22;4090708;28;20262;-39
2022/10/17 06:43:47;;;;;;;5.47;4.83;;;;;;;20.42;51.28;100463.72;4095701;28;20685;-39
2022/10/17 06:45:49;;;;;;;8.47;4.27;;;;;;;22.39;48.61;100392.25;4093967;28;20325;-32
2022/10/17 06:47:51;;;;;;;9.80;4.90;;;;;;;22.65;47.47;100420.97;4109123;28;20320;-35
2022/10/17 06:49:52;;;;;;;14.30;7.07;;;;;;;22.12;48.34;100425.97;4095606;28;20319;-32
2022/10/17 06:51:54;;;;;;;6.70;5.70;;;;;;;22.94;46.93;100393.41;4094340;28;20659;-35
2022/10/17 06:53:57;;;;;;;8.40;5.47;;;;;;;22.77;46.99;100431.09;4098219;28;20270;-33
2022/10/17 06:56:03;;;;;;;9.07;6.10;;;;;;;24.04;45.07;100367.94;4111934;28;20256;-33
2022/10/17 06:58:04;;;;;;;12.37;5.70;;;;;;;24.60;44.25;100357.59;4101310;28;20260;-33
2022/10/17 07:00:07;;;;;;;8.90;4.93;;;;;;;24.78;43.68;100369.44;4095830;28;20304;-33
2022/10/17 07:02:10;;;;;;;6.17;4.70;;;;;;;24.23;44.84;100419.53;4094838;28;20314;-33
2022/10/17 07:04:11;;;;;;;6.43;4.40;;;;;;;21.78;50.10;100471.38;4108044;28;20229;-34
2022/10/17 07:06:13;;;;;;;7.73;4.57;;;;;;;23.66;46.79;100399.00;4090717;28;20230;-34
2022/10/17 07:08:15;;;;;;;8.80;4.97;;;;;;;24.26;45.07;100409.00;4106171;28;20261;-32
2022/10/17 07:10:17;;;;;;;7.10;4.30;;;;;;;24.06;45.49;100427.47;4102382;28;20225;-36
2022/10/17 07:12:19;;;;;;;8.77;4.20;;;;;;;22.39;48.61;100451.00;4100255;28;20237;-34
2022/10/17 07:14:20;;;;;;;6.20;3.90;;;;;;;24.07;46.19;100382.94;4092846;28;20731;-33
2022/10/17 07:16:22;;;;;;;4.43;3.63;;;;;;;23.63;46.21;100445.63;4093374;28;20254;-37
2022/10/17 07:18:24;;;;;;;7.30;4.03;;;;;;;22.90;47.65;100473.53;4099261;28;20233;-34
2022/10/17 07:20:25;;;;;;;10.57;4.03;;;;;;;23.20;46.91;100460.94;4099723;28;21171;-34
2022/10/17 07:22:27;;;;;;;9.80;4.50;;;;;;;23.32;47.56;100428.44;4095136;28;20326;-37
2022/10/17 07:24:29;;;;;;;6.80;3.90;;;;;;;24.07;46.43;100400.06;4110197;28;20402;-33
2022/10/17 07:26:30;;;;;;;7.67;5.40;;;;;;;24.59;45.30;100387.75;4096568;28;20531;-34
2022/10/17 07:28:34;;;;;;;9.73;5.60;;;;;;;24.75;45.02;100383.47;4087256;28;20316;-37
2022/10/17 07:30:36;;;;;;;12.33;5.70;;;;;;;24.77;44.74;100405.88;4112425;28;20638;-33
2022/10/17 07:32:37;;;;;;;11.23;5.33;;;;;;;23.55;47.68;100437.75;4101389;28;20669;-34
2022/10/17 07:34:39;;;;;;;9.67;5.63;;;;;;;24.41;45.72;100419.44;4101296;28;20574;-32
2022/10/17 07:36:41;;;;;;;7.90;5.37;;;;;;;24.48;45.92;100411.97;4099645;28;20691;-32
2022/10/17 07:38:42;;;;;;;7.73;5.57;;;;;;;24.00;46.50;100455.56;4100751;28;20261;-38
2022/10/17 07:40:44;;;;;;;9.17;5.97;;;;;;;23.76;46.81;100483.44;4093076;28;20516;-33
2022/10/17 07:42:46;;;;;;;12.10;6.70;;;;;;;24.37;46.02;100429.09;4097262;28;20272;-35
2022/10/17 07:44:47;;;;;;;11.57;6.27;;;;;;;22.95;48.84;100500.84;4103053;28;20252;-34
2022/10/17 07:46:49;;;;;;;8.80;4.87;;;;;;;23.33;48.43;100469.97;4101606;28;20333;-35
2022/10/17 07:48:51;;;;;;;11.10;5.10;;;;;;;24.15;47.08;100426.06;4101589;28;20393;-33
2022/10/17 07:50:52;;;;;;;11.93;5.63;;;;;;;24.45;46.42;100417.06;4100596;28;20268;-33
2022/10/17 07:52:54;;;;;;;8.07;4.50;;;;;;;24.65;46.24;100414.81;4098026;28;20984;-33
2022/10/17 07:54:55;;;;;;;7.60;4.50;;;;;;;24.38;46.94;100438.06;4105675;28;20255;-37
2022/10/17 07:56:57;;;;;;;6.00;5.07;;;;;;;24.77;46.21;100433.06;4101079;28;20325;-36
2022/10/17 07:58:59;;;;;;;7.40;5.40;;;;;;;23.66;48.55;100495.91;4102973;28;20261;-35
2022/10/17 08:01:13;;;;;;;10.37;6.23;;;;;;;24.72;46.96;100433.72;4112770;28;20229;-34
2022/10/17 08:03:16;;;;;;;11.50;6.40;;;;;;;24.02;47.87;100459.69;4100874;28;20229;-35
2022/10/17 08:05:18;;;;;;;9.50;5.53;;;;;;;24.16;47.68;100440.47;4098157;28;20314;-35
2022/10/17 08:07:20;;;;;;;8.63;5.37;;;;;;;24.64;47.28;100418.59;4093272;28;20230;-38
2022/10/17 08:09:27;;;;;;;9.17;5.23;;;;;;;24.62;46.77;100425.34;4111199;28;20310;-35
2022/10/17 08:11:29;;;;;;;6.87;4.83;;;;;;;24.24;47.26;100456.47;4098267;28;20269;-33
2022/10/17 08:13:31;;;;;;;8.17;4.87;;;;;;;24.16;47.90;100456.78;4093196;28;20265;-33
2022/10/17 08:15:32;;;;;;;8.47;4.77;;;;;;;24.48;47.28;100444.59;4112939;28;20301;-34
2022/10/17 08:17:35;;;;;;;6.03;5.03;;;;;;;23.96;48.18;100479.66;4099347;28;20264;-36
2022/10/17 08:19:39;;;;;;;7.80;4.90;;;;;;;24.39;47.63;100447.88;4107468;28;20312;-36
2022/10/17 08:21:42;;;;;;;8.63;4.60;;;;;;;23.98;48.05;100466.66;4097318;28;20316;-33
2022/10/17 08:23:44;;;;;;;6.17;4.47;;;;;;;23.91;48.19;100463.22;4095425;28;20715;-34
2022/10/17 08:25:45;;;;;;;6.17;4.00;;;;;;;23.63;49.25;100478.19;4100071;28;20246;-35
2022/10/17 08:27:47;;;;;;;7.67;4.37;;;;;;;23.88;48.28;100472.63;4108727;28;20320;-38
2022/10/17 08:29:53;;;;;;;10.70;4.10;;;;;;;24.24;48.06;100451.03;4100930;28;20265;-34
2022/10/17 08:31:55;;;;;;;10.90;4.77;;;;;;;23.96;48.26;100487.78;4099924;28;20250;-35
2022/10/17 08:34:02;;;;;;;9.73;4.47;;;;;;;24.54;47.24;100431.94;4092140;28;20285;-33
2022/10/17 08:36:04;;;;;;;6.83;4.00;;;;;;;23.98;48.45;100472.09;4096287;28;20276;-35
2022/10/17 08:38:06;;;;;;;5.50;3.97;;;;;;;23.90;48.21;100483.28;4104883;28;20707;-33
2022/10/17 08:40:24;;;;;;;9.63;4.80;;;;;;;23.92;48.65;100473.00;4114087;28;20264;-34
2022/10/17 08:42:49;;;;;;;5.67;3.90;;;;;;;24.40;47.97;100436.78;4097548;28;20213;-33
2022/10/17 08:45:06;;;;;;;8.00;3.80;;;;;;;23.24;50.00;100496.56;4092043;28;20246;-34
2022/10/17 08:47:14;;;;;;;6.40;4.30;;;;;;;23.11;49.69;100512.97;4104760;28;20308;-33
2022/10/17 08:49:45;;;;;;;8.97;4.00;;;;;;;24.62;47.59;100425.34;4098463;28;20265;-37
2022/10/17 08:52:03;;;;;;;7.47;4.70;;;;;;;23.46;49.07;100507.81;4093101;28;20225;-32
2022/10/17 08:54:18;;;;;;;6.67;3.47;;;;;;;23.69;49.02;100493.56;4101991;28;20329;-36
2022/10/17 08:56:29;;;;;;;5.67;3.43;;;;;;;23.59;50.15;100479.72;4105783;28;20229;-36
2022/10/17 08:58:48;;;;;;;7.17;4.07;;;;;;;23.07;49.74;100511.78;4092198;28;20727;-34
2022/10/17 09:01:27;;;;;;;7.43;3.73;;;;;;;23.83;49.46;100442.63;4100196;28;20273;-34
2022/10/17 09:03:29;;;;;;;5.57;3.70;;;;;;;24.57;47.50;100433.38;4103232;28;20528;-35
2022/10/17 09:05:30;;;;;;;8.63;4.10;;;;;;;24.43;48.48;100452.63;4098284;28;20225;-34
2022/10/17 09:07:51;;;;;;;9.10;3.90;;;;;;;23.90;49.22;100473.22;4103631;28;20316;-34
2022/10/17 09:10:02;;;;;;;5.20;3.53;;;;;;;23.83;49.41;100482.53;4110110;28;20273;-35
2022/10/17 09:12:48;;;;;;;9.43;3.70;;;;;;;23.51;50.30;100472.66;4107428;28;20241;-32
2022/10/17 09:15:26;;;;;;;7.57;3.37;;;;;;;22.97;50.91;100499.53;4036971;29;20740;-34
2022/10/17 09:17:43;;;;;;;5.83;3.90;;;;;;;23.83;49.57;100447.25;4005083;29;20267;-33
2022/10/17 09:19:50;;;;;;;6.13;3.53;;;;;;;24.22;49.07;100442.31;4047059;28;20249;-34
2022/10/17 09:22:26;;;;;;;7.17;3.77;;;;;;;24.43;48.10;100449.91;4111325;28;20622;-33
2022/10/17 09:24:54;;;;;;;6.47;3.37;;;;;;;25.03;47.46;100429.81;4077364;28;20312;-36
2022/10/17 09:26:56;;;;;;;9.90;3.60;;;;;;;23.29;49.91;100528.47;4108270;28;20734;-37
2022/10/17 09:28:59;;;;;;;5.07;3.40;;;;;;;24.31;48.45;100455.31;4099088;28;20269;-36
2022/10/17 09:31:18;;;;;;;7.67;3.40;;;;;;;25.25;47.41;100421.03;4094178;28;20246;-33
2022/10/17 09:33:27;;;;;;;5.60;3.37;;;;;;;24.02;49.01;100489.56;4094242;28;20316;-35
2022/10/17 09:35:44;;;;;;;10.73;3.43;;;;;;;24.68;47.80;100441.53;4088354;28;20236;-33
2022/10/17 09:37:48;;;;;;;8.07;3.40;;;;;;;24.88;47.49;100462.13;4107861;28;20241;-34
2022/10/17 09:39:50;;;;;;;5.53;3.73;;;;;;;25.66;46.34;100429.19;4092184;28;20233;-35
2022/10/17 09:41:57;;;;;;;7.73;3.90;;;;;;;25.56;46.65;100459.78;4093939;28;20790;-33
2022/10/17 09:44:15;;;;;;;9.87;4.03;;;;;;;25.89;46.08;100441.88;4110725;28;20709;-34